Time;durP1;ratioP1;P1;durP2;ratioP2;P2;SDS_P1;SDS_P2;PMS_P1;PMS_P2;Temp;Humidity;BMP_temperature;BMP_pressure;BME280_temperature;BME280_humidity;BME280_pressure;Samples;Min_cycle;Max_cycle;Signal;HPM_P1;HPM_P2
2022/04/04 00:01:41;;;;;;;19.83;11.85;;;0.40;99.90;;;;;;5238417;28;20052;-74
2022/04/04 00:04:14;;;;;;;21.77;13.20;;;0.40;99.90;;;;;;5217274;28;21281;-74
2022/04/04 00:06:47;;;;;;;19.73;12.00;;;0.30;99.90;;;;;;5237100;28;20048;-74
2022/04/04 00:09:19;;;;;;;18.35;11.57;;;0.20;99.90;;;;;;5235292;28;20051;-74
2022/04/04 00:11:51;;;;;;;20.48;12.35;;;0.30;99.90;;;;;;5240773;28;20048;-75
2022/04/04 00:14:24;;;;;;;20.20;12.33;;;0.30;99.90;;;;;;5231099;28;20052;-74
2022/04/04 00:17:00;;;;;;;21.42;11.57;;;0.30;99.90;;;;;;5237836;28;20040;-74
2022/04/04 00:19:32;;;;;;;18.50;11.32;;;0.30;99.90;;;;;;5205159;28;20040;-74
2022/04/04 00:22:05;;;;;;;21.05;11.43;;;0.20;99.90;;;;;;5219187;28;20041;-74
2022/04/04 00:24:37;;;;;;;21.17;12.43;;;0.20;99.90;;;;;;5224298;28;20518;-74
2022/04/04 00:27:10;;;;;;;18.80;11.25;;;0.20;99.90;;;;;;5238605;28;20505;-74
2022/04/04 00:29:42;;;;;;;19.35;12.02;;;0.10;99.90;;;;;;5221797;28;20044;-74
2022/04/04 00:32:15;;;;;;;22.58;12.57;;;0.00;99.90;;;;;;5240074;28;20036;-74
2022/04/04 00:34:47;;;;;;;20.55;12.48;;;0.00;99.90;;;;;;5214878;28;20044;-73
2022/04/04 00:37:20;;;;;;;18.33;12.10;;;-0.10;99.90;;;;;;5204729;28;20943;-75
2022/04/04 00:39:52;;;;;;;19.38;11.15;;;-0.10;99.90;;;;;;5235969;28;20044;-74
2022/04/04 00:42:25;;;;;;;19.85;12.40;;;-0.10;99.90;;;;;;5241552;28;20056;-74
2022/04/04 00:44:58;;;;;;;18.53;12.13;;;-0.10;99.90;;;;;;5221500;28;20049;-74
2022/04/04 00:47:30;;;;;;;20.08;11.00;;;-0.10;99.90;;;;;;5242789;28;20421;-73
2022/04/04 00:50:04;;;;;;;20.38;11.98;;;-0.10;99.90;;;;;;5238287;28;20053;-73
2022/04/04 00:52:36;;;;;;;;;;;-0.10;99.90;;;;;;5240802;28;20055;-76
2022/04/04 00:55:10;;;;;;;24.00;13.05;;;-0.20;99.90;;;;;;5239197;28;19977;-74
2022/04/04 00:57:42;;;;;;;27.92;14.57;;;-0.20;99.90;;;;;;5242514;28;20207;-74
2022/04/04 01:00:15;;;;;;;22.70;12.70;;;-0.40;99.90;;;;;;5233748;28;20047;-73
2022/04/04 01:02:48;;;;;;;22.80;12.88;;;-0.40;99.90;;;;;;5239026;28;20056;-73
2022/04/04 01:05:20;;;;;;;21.75;13.07;;;-0.40;99.90;;;;;;5231682;28;20857;-73
2022/04/04 01:07:53;;;;;;;20.38;12.10;;;-0.40;99.90;;;;;;5237124;28;20040;-73
2022/04/04 01:10:28;;;;;;;23.02;12.52;;;-0.40;99.90;;;;;;5242268;28;20499;-74
2022/04/04 01:13:01;;;;;;;22.88;13.32;;;-0.50;99.90;;;;;;5234473;28;20044;-73
2022/04/04 01:15:33;;;;;;;23.08;12.63;;;-0.60;99.90;;;;;;5244651;28;21260;-74
2022/04/04 01:18:07;;;;;;;21.95;12.15;;;-0.60;99.90;;;;;;5233559;28;20036;-73
2022/04/04 01:20:40;;;;;;;19.48;11.68;;;-0.60;99.90;;;;;;5243340;28;20055;-75
2022/04/04 01:23:16;;;;;;;35.38;14.82;;;-0.60;99.90;;;;;;5245365;28;20040;-74
2022/04/04 01:25:49;;;;;;;22.10;12.60;;;-0.70;99.90;;;;;;5245688;28;20048;-73
2022/04/04 01:28:22;;;;;;;22.75;14.57;;;-0.70;99.90;;;;;;5243691;28;20728;-74
2022/04/04 01:30:54;;;;;;;20.88;12.35;;;-0.70;99.90;;;;;;5241681;28;20123;-75
2022/04/04 01:33:26;;;;;;;22.73;12.85;;;-0.70;99.90;;;;;;5244966;28;20099;-74
2022/04/04 01:35:59;;;;;;;25.42;13.18;;;-0.80;99.90;;;;;;5240336;28;20052;-73
2022/04/04 01:38:31;;;;;;;23.35;13.65;;;-0.80;99.90;;;;;;5244145;28;20048;-74
2022/04/04 01:41:04;;;;;;;22.65;12.70;;;-0.80;99.90;;;;;;5242215;28;20484;-73
2022/04/04 01:43:36;;;;;;;20.85;12.45;;;-0.80;99.90;;;;;;5245354;28;20052;-73
2022/04/04 01:46:24;;;;;;;20.77;12.45;;;-0.80;99.90;;;;;;5240046;28;20095;-74
2022/04/04 01:48:59;;;;;;;26.13;13.15;;;-0.90;99.90;;;;;;5241866;28;20061;-75
2022/04/04 01:51:34;;;;;;;21.67;11.43;;;-0.90;99.90;;;;;;5246658;28;20052;-75
2022/04/04 01:54:06;;;;;;;22.83;12.73;;;-1.00;99.90;;;;;;5243785;28;20049;-74
2022/04/04 01:56:41;;;;;;;22.90;13.10;;;-1.00;99.90;;;;;;5226096;28;20044;-75
2022/04/04 01:59:14;;;;;;;22.10;12.60;;;-1.00;99.90;;;;;;5242232;28;20037;-74
2022/04/04 02:01:46;;;;;;;21.10;12.70;;;-1.00;99.90;;;;;;5238533;28;20380;-75
2022/04/04 02:04:19;;;;;;;22.20;13.47;;;-1.00;99.90;;;;;;5226160;28;20052;-75
2022/04/04 02:06:52;;;;;;;23.15;12.68;;;-1.10;99.90;;;;;;5229990;28;20522;-75
2022/04/04 02:09:25;;;;;;;24.33;13.82;;;-1.10;99.90;;;;;;5227368;28;20043;-76
2022/04/04 02:11:57;;;;;;;21.73;13.43;;;-1.10;99.90;;;;;;5228250;28;20052;-75
2022/04/04 02:14:29;;;;;;;22.50;13.30;;;-1.10;99.90;;;;;;5214123;28;20858;-74
2022/04/04 02:17:02;;;;;;;24.52;13.13;;;-1.10;99.90;;;;;;5243551;28;20059;-75
2022/04/04 02:19:34;;;;;;;28.07;12.93;;;-1.20;99.90;;;;;;5226420;28;20053;-74
2022/04/04 02:22:10;;;;;;;23.00;13.10;;;-1.30;99.90;;;;;;5239511;28;20044;-74
2022/04/04 02:24:42;;;;;;;27.42;13.68;;;-1.30;99.90;;;;;;5237125;28;20051;-74
2022/04/04 02:27:15;;;;;;;23.58;13.45;;;-1.30;99.90;;;;;;5236114;28;20048;-74
2022/04/04 02:29:47;;;;;;;24.58;13.07;;;-1.30;99.90;;;;;;5238272;28;20036;-74
2022/04/04 02:32:20;;;;;;;21.80;12.95;;;-1.30;99.90;;;;;;5241727;28;20456;-74
2022/04/04 02:34:52;;;;;;;21.42;12.05;;;-1.30;99.90;;;;;;5217972;28;20047;-75
2022/04/04 02:37:24;;;;;;;23.48;12.35;;;-1.30;99.90;;;;;;5237177;28;20044;-74
2022/04/04 02:39:57;;;;;;;21.35;12.52;;;-1.40;99.90;;;;;;5239052;28;20044;-74
2022/04/04 02:42:30;;;;;;;23.38;12.75;;;-1.30;99.90;;;;;;5216124;28;20965;-74
2022/04/04 02:45:03;;;;;;;25.63;14.18;;;-1.30;99.90;;;;;;5228888;28;20055;-74
2022/04/04 02:47:37;;;;;;;21.48;12.82;;;-1.30;99.90;;;;;;5218959;28;20056;-74
2022/04/04 02:50:11;;;;;;;22.63;13.00;;;-1.40;99.90;;;;;;5228485;28;20527;-73
2022/04/04 02:52:44;;;;;;;;;;;-1.50;99.90;;;;;;5220170;28;20055;-74
2022/04/04 02:58:07;;;;;;;22.20;12.75;;;-1.60;99.90;;;;;;5223140;28;20806;-74
2022/04/04 03:00:41;;;;;;;24.65;14.05;;;-1.60;99.90;;;;;;5237961;28;20574;-74
2022/04/04 03:03:14;;;;;;;23.35;13.65;;;-1.60;99.90;;;;;;5205016;28;20703;-74
2022/04/04 03:05:46;;;;;;;24.10;12.95;;;-1.70;99.90;;;;;;5236267;28;20052;-75
2022/04/04 03:08:19;;;;;;;27.27;13.80;;;-1.70;99.90;;;;;;5237954;28;20487;-74
2022/04/04 03:10:51;;;;;;;30.08;14.20;;;-1.70;99.90;;;;;;5240329;28;20313;-74
2022/04/04 03:13:24;;;;;;;27.73;13.93;;;-1.70;99.90;;;;;;5229117;28;20419;-74
2022/04/04 03:15:57;;;;;;;24.37;13.13;;;-1.70;99.90;;;;;;5220334;28;20762;-73
2022/04/04 03:18:29;;;;;;;25.10;12.88;;;-1.80;99.90;;;;;;5242506;28;21100;-75
2022/04/04 03:21:03;;;;;;;23.40;12.00;;;-1.70;99.90;;;;;;5240537;28;20564;-73
2022/04/04 03:23:39;;;;;;;22.23;12.35;;;-1.70;99.90;;;;;;5206234;28;20044;-75
2022/04/04 03:26:13;;;;;;;22.70;12.75;;;-1.70;99.90;;;;;;5240360;28;20051;-73
2022/04/04 03:28:46;;;;;;;22.73;12.00;;;-1.70;99.90;;;;;;5240544;28;20047;-73
2022/04/04 03:31:19;;;;;;;22.33;11.90;;;-1.70;99.90;;;;;;5227764;28;20555;-75
2022/04/04 03:33:51;;;;;;;20.27;11.75;;;-1.70;99.90;;;;;;5236169;28;20055;-74
2022/04/04 03:36:24;;;;;;;23.88;13.35;;;-1.70;99.90;;;;;;5222067;28;20090;-74
2022/04/04 03:38:56;;;;;;;21.80;11.88;;;-1.70;99.90;;;;;;5237449;28;20725;-75
2022/04/04 03:41:28;;;;;;;22.60;12.10;;;-1.70;99.90;;;;;;5224758;28;20051;-75
2022/04/04 03:44:01;;;;;;;25.27;12.95;;;-1.70;99.90;;;;;;5239229;28;20413;-74
2022/04/04 03:46:33;;;;;;;22.20;12.63;;;-1.80;99.90;;;;;;5221179;28;20056;-75
2022/04/04 03:49:07;;;;;;;26.85;13.95;;;-1.90;99.90;;;;;;5239619;28;20060;-76
2022/04/04 03:51:39;;;;;;;22.25;12.70;;;-1.90;99.90;;;;;;5236305;28;20080;-75
2022/04/04 03:54:12;;;;;;;25.30;13.05;;;-2.00;99.90;;;;;;5232258;28;20040;-75
2022/04/04 03:56:46;;;;;;;24.17;12.93;;;-2.00;99.90;;;;;;5216403;28;20044;-73
2022/04/04 03:59:18;;;;;;;23.67;13.68;;;-2.00;99.90;;;;;;5233150;28;20044;-75
2022/04/04 04:01:50;;;;;;;25.60;12.63;;;-2.10;99.90;;;;;;5232031;28;20055;-75
2022/04/04 04:04:23;;;;;;;20.37;11.87;;;-2.20;99.90;;;;;;5215068;28;20554;-75
2022/04/04 04:06:55;;;;;;;22.70;11.80;;;-2.20;99.90;;;;;;5231785;28;21052;-75
2022/04/04 04:09:28;;;;;;;29.47;12.67;;;-2.20;99.90;;;;;;5230650;28;20052;-74
2022/04/04 04:12:00;;;;;;;22.65;11.63;;;-2.20;99.90;;;;;;5226339;28;20048;-75
2022/04/04 04:14:33;;;;;;;23.70;12.38;;;-2.20;99.90;;;;;;5234341;22;20537;-75
2022/04/04 04:17:06;;;;;;;23.63;13.10;;;-2.20;99.90;;;;;;5239758;28;20047;-75
2022/04/04 04:22:30;;;;;;;25.50;14.00;;;-2.30;99.90;;;;;;5238386;28;20407;-75
2022/04/04 04:25:05;;;;;;;28.23;14.43;;;-2.40;99.90;;;;;;5213579;28;20052;-74
2022/04/04 04:27:37;;;;;;;26.73;14.00;;;-2.40;99.90;;;;;;5230800;28;20050;-75
2022/04/04 04:30:10;;;;;;;27.92;14.15;;;-2.40;99.90;;;;;;5236357;28;20044;-75
2022/04/04 04:32:48;;;;;;;21.25;11.73;;;-2.50;99.90;;;;;;5238464;28;20147;-75
2022/04/04 04:35:22;;;;;;;25.48;12.85;;;-2.50;99.90;;;;;;5237007;28;20079;-75
2022/04/04 04:37:54;;;;;;;27.27;13.60;;;-2.50;99.90;;;;;;5222189;28;20440;-75
2022/04/04 04:40:27;;;;;;;22.33;10.67;;;-2.50;99.90;;;;;;5231964;28;20048;-75
2022/04/04 04:43:01;;;;;;;22.30;12.48;;;-2.50;99.90;;;;;;5235255;28;20381;-75
2022/04/04 04:45:34;;;;;;;22.33;12.50;;;-2.60;99.90;;;;;;5241424;28;20499;-74
2022/04/04 04:48:07;;;;;;;21.90;12.30;;;-2.50;99.90;;;;;;5209062;28;20052;-74
2022/04/04 04:50:39;;;;;;;24.95;13.30;;;-2.40;99.90;;;;;;5227882;28;20048;-74
2022/04/04 04:53:12;;;;;;;24.83;12.82;;;-2.50;99.90;;;;;;5226015;28;20036;-74
2022/04/04 04:55:45;;;;;;;23.13;13.93;;;-2.50;99.90;;;;;;5215473;28;20039;-74
2022/04/04 04:58:17;;;;;;;22.40;11.85;;;-2.50;99.90;;;;;;5245241;28;20044;-74
2022/04/04 05:00:49;;;;;;;24.85;13.15;;;-2.50;99.90;;;;;;5238642;28;20039;-74
2022/04/04 05:03:25;;;;;;;26.00;13.30;;;-2.40;99.90;;;;;;5220077;28;20048;-75
2022/04/04 05:05:57;;;;;;;26.38;13.82;;;-2.40;99.90;;;;;;5226541;28;20056;-73
2022/04/04 05:08:30;;;;;;;26.05;14.32;;;-2.40;99.90;;;;;;5243316;28;20044;-74
2022/04/04 05:11:03;;;;;;;21.13;11.23;;;-2.40;99.90;;;;;;5215679;28;20742;-73
2022/04/04 05:13:36;;;;;;;28.75;14.52;;;-2.30;99.90;;;;;;5211851;28;20055;-74
2022/04/04 05:16:10;;;;;;;26.10;13.48;;;-2.30;99.90;;;;;;5243148;28;20048;-74
2022/04/04 05:18:44;;;;;;;26.88;13.88;;;-2.20;99.90;;;;;;5235538;28;20067;-77
2022/04/04 05:21:16;;;;;;;29.00;15.65;;;-2.20;99.90;;;;;;5240398;28;20051;-72
2022/04/04 05:23:49;;;;;;;44.00;23.02;;;-2.20;99.90;;;;;;5239305;28;20048;-72
2022/04/04 05:26:22;;;;;;;42.57;22.27;;;-2.20;99.90;;;;;;5219883;28;20064;-72
2022/04/04 05:28:54;;;;;;;50.72;27.10;;;-2.20;99.90;;;;;;5231021;28;20294;-72
2022/04/04 05:31:27;;;;;;;44.10;26.08;;;-2.20;99.90;;;;;;5245021;28;20051;-72
2022/04/04 05:34:04;;;;;;;40.67;24.02;;;-2.20;99.90;;;;;;5237037;28;20053;-72
2022/04/04 05:36:37;;;;;;;43.20;23.30;;;-2.10;99.90;;;;;;5218867;28;20534;-72
2022/04/04 05:39:09;;;;;;;38.20;23.97;;;-2.00;99.90;;;;;;5234782;28;20040;-72
2022/04/04 05:41:42;;;;;;;47.17;22.25;;;-2.00;99.90;;;;;;5233858;28;20044;-72
2022/04/04 05:44:15;;;;;;;38.50;21.00;;;-2.00;99.90;;;;;;5255209;28;20044;-72
2022/04/04 05:46:48;;;;;;;37.03;20.03;;;-1.90;99.90;;;;;;5251292;28;20059;-72
2022/04/04 05:49:20;;;;;;;37.63;20.58;;;-1.80;99.90;;;;;;5236119;28;20052;-72
2022/04/04 05:51:53;;;;;;;34.05;19.52;;;-1.70;99.90;;;;;;5237292;28;20117;-73
2022/04/04 05:54:34;;;;;;;43.83;21.17;;;-1.70;99.90;;;;;;5255549;28;20048;-73
2022/04/04 05:57:06;;;;;;;40.03;20.77;;;-1.60;99.90;;;;;;5253449;28;20488;-73
2022/04/04 05:59:39;;;;;;;36.30;17.70;;;-1.60;99.90;;;;;;5235837;28;20052;-72
2022/04/04 06:02:12;;;;;;;31.40;15.70;;;-1.50;99.90;;;;;;5254331;28;20051;-73
2022/04/04 06:04:51;;;;;;;28.65;16.58;;;-1.40;99.90;;;;;;5254747;28;20055;-73
2022/04/04 06:07:24;;;;;;;29.40;16.93;;;-1.30;99.90;;;;;;5253845;28;20043;-72
2022/04/04 06:09:56;;;;;;;29.35;15.73;;;-1.20;99.90;;;;;;5254077;28;20290;-73
2022/04/04 06:12:34;;;;;;;32.58;17.00;;;-1.20;99.90;;;;;;5255559;28;20055;-73
2022/04/04 06:15:07;;;;;;;28.63;15.45;;;-1.10;99.90;;;;;;5252599;28;20139;-73
2022/04/04 06:17:39;;;;;;;27.92;15.77;;;-1.10;99.90;;;;;;5256011;28;20036;-72
2022/04/04 06:20:13;;;;;;;28.83;15.52;;;-1.00;99.90;;;;;;5255881;28;20044;-73
2022/04/04 06:22:46;;;;;;;30.65;15.95;;;-0.80;99.90;;;;;;5233639;28;20074;-73
2022/04/04 06:25:19;;;;;;;30.90;16.33;;;-0.80;99.90;;;;;;5255865;28;20036;-73
2022/04/04 06:27:52;;;;;;;28.63;15.18;;;-0.80;99.90;;;;;;5233932;28;20787;-74
2022/04/04 06:30:26;;;;;;;22.57;13.67;;;-0.70;99.90;;;;;;5256135;28;20056;-73
2022/04/04 06:32:58;;;;;;;;;;;-0.60;99.90;;;;;;5235520;28;20286;-73
2022/04/04 06:35:30;;;;;;;23.88;13.77;;;-0.60;99.90;;;;;;5254376;28;19924;-73
2022/04/04 06:38:03;;;;;;;24.08;12.57;;;-0.50;99.90;;;;;;5253046;28;20048;-73
2022/04/04 06:40:35;;;;;;;22.70;12.93;;;-0.40;99.90;;;;;;5238017;28;20062;-74
2022/04/04 06:43:08;;;;;;;24.58;13.70;;;-0.30;99.90;;;;;;5221333;28;20048;-74
2022/04/04 06:45:41;;;;;;;23.52;12.73;;;-0.30;99.90;;;;;;5238184;28;20062;-74
2022/04/04 06:48:13;;;;;;;27.63;13.35;;;-0.20;99.90;;;;;;5256039;28;20492;-73
2022/04/04 06:50:46;;;;;;;35.10;13.43;;;-0.10;99.90;;;;;;5256300;28;20113;-73
2022/04/04 06:53:21;;;;;;;21.65;12.30;;;0.00;99.90;;;;;;5257298;28;20620;-73
2022/04/04 06:55:54;;;;;;;20.98;11.48;;;0.10;99.90;;;;;;5239200;28;20423;-73
2022/04/04 06:58:27;;;;;;;30.45;11.95;;;0.20;99.90;;;;;;5255130;28;20134;-72
2022/04/04 07:01:01;;;;;;;19.10;11.27;;;0.30;98.70;;;;;;5237353;28;20052;-73
2022/04/04 07:03:34;;;;;;;21.42;10.77;;;0.40;98.10;;;;;;5253040;28;20423;-72
2022/04/04 07:06:07;;;;;;;16.50;10.43;;;0.50;96.90;;;;;;5252842;28;20043;-72
2022/04/04 07:08:40;;;;;;;17.60;9.55;;;0.50;96.60;;;;;;5255382;28;20047;-72
2022/04/04 07:11:13;;;;;;;14.63;8.35;;;0.60;95.80;;;;;;5254701;28;20063;-73
2022/04/04 07:13:49;;;;;;;12.13;7.20;;;0.70;93.30;;;;;;5253124;28;20062;-74
2022/04/04 07:16:21;;;;;;;18.30;8.45;;;0.70;91.70;;;;;;5252813;28;20066;-73
2022/04/04 07:18:54;;;;;;;12.55;7.00;;;0.80;91.80;;;;;;5254012;28;20403;-73
2022/04/04 07:21:28;;;;;;;11.65;7.35;;;1.00;90.80;;;;;;5217736;28;20052;-72
2022/04/04 07:24:00;;;;;;;14.27;7.50;;;1.10;89.90;;;;;;5236372;28;20036;-73
2022/04/04 07:26:33;;;;;;;14.27;7.75;;;1.10;88.50;;;;;;5236710;28;20044;-72
2022/04/04 07:29:06;;;;;;;12.23;7.40;;;1.30;89.40;;;;;;5253988;28;20032;-72
2022/04/04 07:31:38;;;;;;;14.00;7.73;;;1.40;88.00;;;;;;5252485;28;20042;-73
2022/04/04 07:34:11;;;;;;;12.05;6.97;;;1.50;86.20;;;;;;5252048;28;20289;-71
2022/04/04 07:36:43;;;;;;;13.77;7.20;;;1.50;85.90;;;;;;5235199;28;20044;-73
2022/04/04 07:39:16;;;;;;;11.15;6.65;;;1.60;84.00;;;;;;5252153;28;20044;-73
2022/04/04 07:41:48;;;;;;;11.45;6.60;;;1.60;83.50;;;;;;5236292;28;20051;-73
2022/04/04 07:44:21;;;;;;;12.93;6.97;;;1.70;82.70;;;;;;5253588;28;20048;-73
2022/04/04 07:46:53;;;;;;;15.73;7.10;;;1.80;82.80;;;;;;5255036;28;20047;-71
2022/04/04 07:49:26;;;;;;;10.27;6.40;;;1.80;82.10;;;;;;5235884;28;20056;-73
2022/04/04 07:51:58;;;;;;;11.33;6.53;;;2.00;81.60;;;;;;5256963;28;20493;-73
2022/04/04 07:54:31;;;;;;;12.25;6.55;;;1.90;79.30;;;;;;5255004;28;20051;-74
2022/04/04 07:57:04;;;;;;;12.77;6.90;;;2.00;79.90;;;;;;5254524;28;20494;-72
2022/04/04 07:59:36;;;;;;;9.82;5.60;;;2.20;80.00;;;;;;5253006;28;20044;-73
2022/04/04 08:02:09;;;;;;;11.07;6.93;;;2.20;78.10;;;;;;5236577;28;20055;-73
2022/04/04 08:04:42;;;;;;;11.53;6.67;;;2.20;77.40;;;;;;5253731;28;20075;-72
2022/04/04 08:07:18;;;;;;;10.93;5.93;;;2.30;77.90;;;;;;5253951;28;20290;-72
2022/04/04 08:09:51;;;;;;;9.57;5.97;;;2.30;76.70;;;;;;5228555;28;20048;-73
2022/04/04 08:12:27;;;;;;;10.15;6.38;;;2.40;77.00;;;;;;5220216;28;20044;-72
2022/04/04 08:15:00;;;;;;;11.40;5.57;;;2.50;75.80;;;;;;5235780;28;20051;-72
2022/04/04 08:17:32;;;;;;;9.38;4.90;;;2.50;75.80;;;;;;5254950;28;20060;-73
2022/04/04 08:20:05;;;;;;;10.68;5.25;;;2.60;75.20;;;;;;5252268;28;20237;-73
2022/04/04 08:22:43;;;;;;;10.38;6.20;;;2.50;73.90;;;;;;5254954;28;20567;-72
2022/04/04 08:25:17;;;;;;;9.32;6.03;;;2.60;75.10;;;;;;5235812;28;20714;-72
2022/04/04 08:27:49;;;;;;;9.77;6.63;;;2.70;74.40;;;;;;5234927;28;20052;-73
2022/04/04 08:30:22;;;;;;;10.60;6.80;;;2.60;74.20;;;;;;5253215;28;20056;-73
2022/04/04 08:32:55;;;;;;;10.10;6.37;;;2.60;74.60;;;;;;5228701;28;20059;-72
2022/04/04 08:35:27;;;;;;;8.65;6.05;;;2.70;75.80;;;;;;5235517;28;20048;-72
2022/04/04 08:38:00;;;;;;;10.27;6.32;;;2.80;75.40;;;;;;5250480;28;20066;-72
2022/04/04 08:40:32;;;;;;;9.80;5.88;;;2.90;75.10;;;;;;5254056;28;20516;-72
2022/04/04 08:43:11;;;;;;;14.13;6.00;;;3.00;74.70;;;;;;5253383;28;20048;-72
2022/04/04 08:45:44;;;;;;;11.52;5.82;;;2.90;73.60;;;;;;5234421;28;20044;-72
2022/04/04 08:48:18;;;;;;;9.52;5.90;;;2.90;74.00;;;;;;5227464;28;20048;-71
2022/04/04 08:50:52;;;;;;;12.02;6.18;;;2.80;73.00;;;;;;5252906;28;20052;-73
2022/04/04 08:53:24;;;;;;;7.55;5.50;;;2.80;72.90;;;;;;5251928;28;20044;-71
2022/04/04 08:55:57;;;;;;;9.07;5.82;;;2.70;73.70;;;;;;5251807;28;20044;-72
2022/04/04 08:58:30;;;;;;;9.80;5.50;;;2.80;74.80;;;;;;5233872;28;20040;-72
2022/04/04 09:01:03;;;;;;;11.95;6.72;;;2.90;74.40;;;;;;5234371;28;20044;-72
2022/04/04 09:03:35;;;;;;;14.07;5.93;;;2.90;74.00;;;;;;5253559;28;20047;-72
2022/04/04 09:06:08;;;;;;;24.55;8.88;;;2.90;73.60;;;;;;5253234;28;20052;-72
2022/04/04 09:08:45;;;;;;;15.38;7.28;;;3.00;75.00;;;;;;5251595;28;20056;-72
2022/04/04 09:11:18;;;;;;;10.70;6.60;;;3.10;74.00;;;;;;5234619;28;21092;-72
2022/04/04 09:14:06;;;;;;;11.90;6.57;;;3.20;74.40;;;;;;5250977;28;20060;-72
2022/04/04 09:16:53;;;;;;;12.93;7.05;;;3.20;73.30;;;;;;5252738;28;20066;-73
2022/04/04 09:19:32;;;;;;;9.05;6.03;;;3.30;72.10;;;;;;5253022;28;20040;-72
2022/04/04 09:22:15;;;;;;;10.65;6.47;;;3.30;73.50;;;;;;5233138;28;20036;-71
2022/04/04 09:24:59;;;;;;;11.32;6.47;;;3.50;74.20;;;;;;5252956;28;20052;-72
2022/04/04 09:27:36;;;;;;;;;;;3.40;73.10;;;;;;5233243;28;20048;-72
2022/04/04 09:30:21;;;;;;;12.85;6.68;;;3.40;72.60;;;;;;5252117;28;19931;-73
2022/04/04 09:32:55;;;;;;;10.02;6.03;;;3.40;73.30;;;;;;5234047;28;20062;-73
2022/04/04 09:35:32;;;;;;;12.35;7.13;;;3.50;75.10;;;;;;5254337;28;20056;-73
2022/04/04 09:38:13;;;;;;;11.38;6.78;;;3.50;74.00;;;;;;5231384;28;20044;-72
2022/04/04 09:40:45;;;;;;;9.95;6.68;;;3.50;73.60;;;;;;5238005;28;20051;-72
2022/04/04 09:43:18;;;;;;;12.13;7.30;;;3.60;73.90;;;;;;5255523;28;20562;-73
2022/04/04 09:46:10;;;;;;;11.70;6.63;;;3.50;73.10;;;;;;5256031;28;20056;-73
2022/04/04 09:49:08;;;;;;;12.70;7.30;;;3.70;74.20;;;;;;5256247;28;20056;-73
2022/04/04 09:51:46;;;;;;;10.38;6.78;;;3.90;71.60;;;;;;5226231;28;20051;-73
2022/04/04 09:54:24;;;;;;;11.98;7.05;;;4.00;74.00;;;;;;5257012;28;20044;-73
2022/04/04 09:57:10;;;;;;;13.95;7.35;;;4.10;72.60;;;;;;5255951;28;20555;-73
2022/04/04 09:59:43;;;;;;;15.23;7.68;;;4.00;71.70;;;;;;5236375;28;20044;-73
2022/04/04 10:02:16;;;;;;;12.00;7.78;;;4.00;73.40;;;;;;5255926;28;20055;-73
2022/04/04 10:04:50;;;;;;;14.93;8.70;;;4.10;73.70;;;;;;5221430;28;20082;-73
2022/04/04 10:07:23;;;;;;;12.35;7.68;;;4.10;73.40;;;;;;5254398;28;20458;-72
2022/04/04 10:09:56;;;;;;;17.40;8.48;;;4.30;73.30;;;;;;5256147;28;20578;-73
2022/04/04 10:12:28;;;;;;;13.95;7.72;;;4.50;72.80;;;;;;5255863;28;20044;-73
2022/04/04 10:15:03;;;;;;;13.93;7.65;;;4.50;72.90;;;;;;5253446;28;20073;-74
2022/04/04 10:17:37;;;;;;;15.65;8.48;;;4.60;71.60;;;;;;5248330;28;20063;-72
2022/04/04 10:20:11;;;;;;;18.33;7.78;;;4.80;72.90;;;;;;5255614;28;20032;-72
2022/04/04 10:22:45;;;;;;;15.75;8.27;;;4.80;71.90;;;;;;5238349;28;20052;-73
2022/04/04 10:25:21;;;;;;;16.33;8.73;;;4.90;72.50;;;;;;5256469;28;20043;-72
2022/04/04 10:27:55;;;;;;;17.35;8.57;;;5.00;73.00;;;;;;5236881;28;20427;-73
2022/04/04 10:30:33;;;;;;;15.50;7.90;;;5.10;72.70;;;;;;5245832;28;20059;-73
2022/04/04 10:33:18;;;;;;;12.98;8.55;;;5.10;69.80;;;;;;5255120;28;20051;-72
2022/04/04 10:36:07;;;;;;;14.88;9.23;;;5.10;71.00;;;;;;5235519;28;20051;-73
2022/04/04 10:38:51;;;;;;;15.27;8.95;;;5.20;71.60;;;;;;5215947;28;20067;-73
2022/04/04 10:41:28;;;;;;;;;;;5.20;72.40;;;;;;5255397;28;20062;-73
2022/04/04 10:44:05;;;;;;;15.93;8.93;;;5.00;68.30;;;;;;5254136;28;19923;-73
2022/04/04 10:46:38;;;;;;;14.57;8.45;;;4.90;72.40;;;;;;5236952;28;20052;-73
2022/04/04 10:49:12;;;;;;;16.85;8.98;;;4.90;71.60;;;;;;5236458;28;20044;-72
2022/04/04 10:51:50;;;;;;;20.35;10.90;;;5.00;72.20;;;;;;5239197;28;20059;-73
2022/04/04 10:54:23;;;;;;;18.23;10.40;;;5.10;71.80;;;;;;5256050;28;20059;-73
2022/04/04 10:56:59;;;;;;;12.90;8.77;;;5.30;72.20;;;;;;5237202;28;20052;-73
2022/04/04 10:59:32;;;;;;;15.32;9.15;;;5.40;72.00;;;;;;5254430;28;20403;-73
2022/04/04 11:02:05;;;;;;;15.38;9.30;;;5.40;70.60;;;;;;5254418;28;20890;-73
2022/04/04 11:07:37;;;;;;;16.33;9.48;;;5.50;72.20;;;;;;5237286;28;20051;-73
2022/04/04 11:07:41;;;;;;;17.88;11.10;;;5.70;71.10;;;;;;5253547;28;20051;-73
2022/04/04 11:10:43;;;;;;;15.13;9.38;;;5.80;71.20;;;;;;5254646;28;20087;-73
2022/04/04 11:13:15;;;;;;;15.95;9.27;;;5.90;69.40;;;;;;5230282;28;20518;-73
2022/04/04 11:15:55;;;;;;;15.10;9.77;;;6.10;69.90;;;;;;5238141;28;20818;-74
2022/04/04 11:18:52;;;;;;;17.08;9.70;;;6.40;70.50;;;;;;5242023;28;20048;-74
2022/04/04 11:21:41;;;;;;;17.27;10.00;;;6.60;68.60;;;;;;5233994;28;20062;-73
2022/04/04 11:24:15;;;;;;;15.52;9.55;;;6.70;70.10;;;;;;5250513;28;20028;-74
2022/04/04 11:26:50;;;;;;;14.55;8.40;;;6.80;68.50;;;;;;5232904;28;20048;-74
2022/04/04 11:29:25;;;;;;;13.73;9.48;;;6.50;67.30;;;;;;5236499;28;20431;-74
2022/04/04 11:31:57;;;;;;;18.13;9.88;;;6.80;70.10;;;;;;5238545;28;20062;-74
2022/04/04 11:34:31;;;;;;;17.15;9.80;;;7.00;70.10;;;;;;5221136;28;21579;-74
2022/04/04 11:37:04;;;;;;;16.73;10.20;;;7.40;68.90;;;;;;5240946;28;20040;-74
2022/04/04 11:39:37;;;;;;;13.77;9.25;;;7.70;68.70;;;;;;5246345;28;20059;-74
2022/04/04 11:42:10;;;;;;;13.45;8.80;;;7.70;66.60;;;;;;5250409;28;20051;-74
2022/04/04 11:44:48;;;;;;;13.13;9.68;;;7.60;66.80;;;;;;5249796;28;20048;-73
2022/04/04 11:47:20;;;;;;;14.23;9.48;;;7.70;64.20;;;;;;5244826;28;20055;-76
2022/04/04 11:49:58;;;;;;;13.25;8.32;;;7.80;65.30;;;;;;5249995;28;20062;-76
2022/04/04 11:52:44;;;;;;;16.05;10.73;;;7.70;64.20;;;;;;5250946;28;20068;-76
2022/04/04 11:55:19;;;;;;;16.95;9.40;;;7.60;64.00;;;;;;5231919;28;20051;-75
2022/04/04 11:58:00;;;;;;;16.65;10.15;;;7.80;66.20;;;;;;5208803;22;20059;-74
2022/04/04 12:00:35;;;;;;;14.35;9.35;;;7.50;65.60;;;;;;5229968;28;20952;-74
2022/04/04 12:03:14;;;;;;;15.57;10.13;;;7.50;65.00;;;;;;5233435;28;20515;-74
2022/04/04 12:05:49;;;;;;;15.18;9.05;;;8.00;65.20;;;;;;5221101;28;20506;-75
2022/04/04 12:08:22;;;;;;;15.23;9.55;;;8.40;64.30;;;;;;5235128;28;20044;-74
2022/04/04 12:10:54;;;;;;;13.95;9.77;;;8.30;64.40;;;;;;5237809;28;20048;-75
2022/04/04 12:13:27;;;;;;;14.82;9.63;;;8.90;64.50;;;;;;5237956;28;20052;-73
2022/04/04 12:15:59;;;;;;;15.07;9.73;;;9.40;64.90;;;;;;5239848;28;20115;-74
2022/04/04 12:18:32;;;;;;;18.80;10.25;;;9.50;63.30;;;;;;5242667;28;20052;-74
2022/04/04 12:21:04;;;;;;;13.73;9.65;;;9.50;62.50;;;;;;5232947;28;20560;-75
2022/04/04 12:26:30;;;;;;;16.92;10.35;;;9.60;61.30;;;;;;5237265;28;20527;-74
2022/04/04 12:29:11;;;;;;;16.60;9.52;;;9.90;61.80;;;;;;5239203;28;20055;-76
2022/04/04 12:31:56;;;;;;;15.95;10.02;;;10.10;61.40;;;;;;5228424;28;20522;-74
2022/04/04 12:34:29;;;;;;;12.45;9.00;;;10.50;61.30;;;;;;5235207;28;20044;-74
2022/04/04 12:37:01;;;;;;;12.52;9.77;;;10.70;61.30;;;;;;5242670;28;20059;-75
2022/04/04 12:39:34;;;;;;;15.98;9.85;;;10.80;61.70;;;;;;5244792;28;20605;-74
2022/04/04 12:42:07;;;;;;;14.80;10.88;;;11.40;62.00;;;;;;5244610;28;20071;-75
2022/04/04 12:44:40;;;;;;;;;;;11.50;60.00;;;;;;5246465;28;20048;-75
2022/04/04 12:47:14;;;;;;;14.15;10.52;;;11.40;58.70;;;;;;5238278;28;19935;-75
2022/04/04 12:49:46;;;;;;;16.75;10.25;;;11.80;62.00;;;;;;5237244;28;20403;-75
2022/04/04 12:52:34;;;;;;;15.40;10.68;;;11.60;59.20;;;;;;5240146;28;20048;-76
2022/04/04 12:55:15;;;;;;;16.38;11.13;;;11.50;61.80;;;;;;5241761;28;20059;-75
2022/04/04 12:57:47;;;;;;;14.98;10.65;;;11.30;59.40;;;;;;5224911;28;20052;-75
2022/04/04 13:00:28;;;;;;;16.33;10.60;;;11.50;60.70;;;;;;5216079;28;20063;-75
2022/04/04 13:03:26;;;;;;;16.10;11.02;;;11.70;58.00;;;;;;5238354;28;20051;-75
2022/04/04 13:06:01;;;;;;;13.93;10.82;;;11.60;55.40;;;;;;5218004;28;20044;-74
2022/04/04 13:08:33;;;;;;;15.57;11.63;;;11.20;58.20;;;;;;5231565;28;20048;-75
2022/04/04 13:11:11;;;;;;;15.35;10.63;;;11.20;59.60;;;;;;5216174;28;20233;-75
2022/04/04 13:14:06;;;;;;;16.92;10.07;;;10.80;57.90;;;;;;5221931;28;20386;-75
2022/04/04 13:17:04;;;;;;;25.25;13.20;;;10.50;57.70;;;;;;5247047;28;26188;-75
2022/04/04 13:19:36;;;;;;;17.80;11.90;;;10.20;59.10;;;;;;5237226;28;20048;-74
2022/04/04 13:22:08;;;;;;;16.05;12.07;;;10.30;59.80;;;;;;5234053;28;20051;-74
2022/04/04 13:24:41;;;;;;;17.58;11.65;;;10.60;60.80;;;;;;5233669;28;20048;-75